BEL1 EBBR-EBOS
Flight info
| Callsign | BEL1 |
|---|---|
| Flight time | 0h 20m |
| Altitude | 10000 |
| Route | DENUT |
| Aircraft | A20N/M-SDE2E3FGHIRWXY/LB1 |
Departure
| Time | 2026-05-05 18:33 |
|---|---|
| Airport | Brussels Airport (EBBR) |
Arrival
| Time | 2026-05-05 18:53 |
|---|---|
| Airport | Ostend-Bruges International Airport (EBOS) |
| Time | Latitude | Longitude | Altitude | Speed | Heading |
|---|---|---|---|---|---|
| 2026-05-05 18:33 | 50.92971 | 4.56114 | 3586 ft | 170 kts | 331° |
| 2026-05-05 18:33 | 50.93731 | 4.54545 | 3987 ft | 197 kts | 304° |
| 2026-05-05 18:33 | 50.94388 | 4.52543 | 4424 ft | 213 kts | 304° |
| 2026-05-05 18:34 | 50.95134 | 4.50358 | 4774 ft | 237 kts | 303° |
| 2026-05-05 18:34 | 50.95944 | 4.47997 | 5270 ft | 255 kts | 302° |
| 2026-05-05 18:34 | 50.96820 | 4.45427 | 5823 ft | 272 kts | 302° |
| 2026-05-05 18:34 | 50.97721 | 4.42774 | 6621 ft | 278 kts | 301° |
| 2026-05-05 18:35 | 50.98627 | 4.40106 | 7506 ft | 281 kts | 301° |
| 2026-05-05 18:35 | 50.99553 | 4.37379 | 8376 ft | 284 kts | 300° |
| 2026-05-05 18:35 | 51.00375 | 4.34535 | 9146 ft | 289 kts | 285° |
| 2026-05-05 18:35 | 51.00667 | 4.31409 | 9654 ft | 293 kts | 275° |
| 2026-05-05 18:36 | 51.00782 | 4.28142 | 9860 ft | 294 kts | 274° |
| 2026-05-05 18:36 | 51.00889 | 4.24898 | 9869 ft | 306 kts | 274° |
| 2026-05-05 18:36 | 51.01035 | 4.21412 | 9866 ft | 323 kts | 275° |
| 2026-05-05 18:36 | 51.01213 | 4.17849 | 9873 ft | 334 kts | 275° |
| 2026-05-05 18:37 | 51.01423 | 4.14048 | 9865 ft | 352 kts | 276° |
| 2026-05-05 18:37 | 51.01648 | 4.10135 | 9859 ft | 355 kts | 276° |
| 2026-05-05 18:37 | 51.01873 | 4.06279 | 9861 ft | 356 kts | 276° |
| 2026-05-05 18:37 | 51.02105 | 4.02350 | 9857 ft | 356 kts | 276° |
| 2026-05-05 18:38 | 51.02332 | 3.98490 | 9859 ft | 356 kts | 276° |
| 2026-05-05 18:38 | 51.02564 | 3.94556 | 9855 ft | 357 kts | 276° |
| 2026-05-05 18:38 | 51.02791 | 3.90670 | 9856 ft | 357 kts | 276° |
| 2026-05-05 18:38 | 51.03021 | 3.86727 | 9857 ft | 357 kts | 277° |
| 2026-05-05 18:39 | 51.03089 | 3.85564 | 9853 ft | 357 kts | 276° |
| 2026-05-05 18:39 | 51.03318 | 3.81640 | 9862 ft | 357 kts | 277° |
| 2026-05-05 18:39 | 51.03545 | 3.77695 | 9870 ft | 357 kts | 277° |
| 2026-05-05 18:39 | 51.03770 | 3.73784 | 9860 ft | 357 kts | 276° |
| 2026-05-05 18:40 | 51.03994 | 3.69892 | 9870 ft | 357 kts | 276° |
| 2026-05-05 18:40 | 51.04218 | 3.65933 | 9872 ft | 357 kts | 276° |
| 2026-05-05 18:40 | 51.04438 | 3.62044 | 9878 ft | 357 kts | 276° |
| 2026-05-05 18:40 | 51.04659 | 3.58107 | 9871 ft | 357 kts | 276° |
| 2026-05-05 18:41 | 51.04876 | 3.54214 | 9876 ft | 357 kts | 276° |
| 2026-05-05 18:41 | 51.05094 | 3.50277 | 9871 ft | 357 kts | 276° |
| 2026-05-05 18:41 | 51.05308 | 3.46395 | 9879 ft | 357 kts | 276° |
| 2026-05-05 18:41 | 51.05521 | 3.42476 | 9883 ft | 357 kts | 276° |
| 2026-05-05 18:42 | 51.05734 | 3.38574 | 9876 ft | 357 kts | 276° |
| 2026-05-05 18:42 | 51.05945 | 3.34655 | 9877 ft | 357 kts | 276° |
| 2026-05-05 18:42 | 51.06158 | 3.30705 | 9887 ft | 357 kts | 276° |
| 2026-05-05 18:42 | 51.06366 | 3.26791 | 9884 ft | 357 kts | 276° |
| 2026-05-05 18:43 | 51.06573 | 3.22885 | 9863 ft | 356 kts | 276° |
| 2026-05-05 18:43 | 51.06781 | 3.18947 | 9339 ft | 356 kts | 276° |
| 2026-05-05 18:43 | 51.06985 | 3.15057 | 8460 ft | 364 kts | 276° |
| 2026-05-05 18:43 | 51.07193 | 3.11068 | 7734 ft | 365 kts | 276° |
| 2026-05-05 18:44 | 51.07400 | 3.07060 | 7093 ft | 363 kts | 276° |
| 2026-05-05 18:44 | 51.07602 | 3.03111 | 6559 ft | 353 kts | 276° |
| 2026-05-05 18:44 | 51.07796 | 2.99324 | 6038 ft | 339 kts | 277° |
| 2026-05-05 18:44 | 51.07872 | 2.95606 | 5539 ft | 338 kts | 271° |
| 2026-05-05 18:45 | 51.07812 | 2.91896 | 5021 ft | 336 kts | 270° |
| 2026-05-05 18:45 | 51.07736 | 2.88226 | 4519 ft | 335 kts | 271° |
| 2026-05-05 18:45 | 51.07671 | 2.84558 | 4015 ft | 333 kts | 271° |
| 2026-05-05 18:45 | 51.07615 | 2.80872 | 3506 ft | 331 kts | 272° |
| 2026-05-05 18:46 | 51.07568 | 2.77267 | 3200 ft | 321 kts | 272° |
| 2026-05-05 18:46 | 51.07523 | 2.73815 | 3024 ft | 309 kts | 272° |
| 2026-05-05 18:46 | 51.07480 | 2.70484 | 2979 ft | 292 kts | 272° |
| 2026-05-05 18:46 | 51.07437 | 2.67351 | 2975 ft | 275 kts | 273° |
| 2026-05-05 18:47 | 51.07417 | 2.64411 | 2979 ft | 257 kts | 278° |
| 2026-05-05 18:47 | 51.07867 | 2.61838 | 2963 ft | 231 kts | 307° |
| 2026-05-05 18:47 | 51.08858 | 2.60038 | 2969 ft | 206 kts | 331° |
| 2026-05-05 18:47 | 51.10062 | 2.59081 | 2951 ft | 185 kts | 350° |
| 2026-05-05 18:48 | 51.11281 | 2.58615 | 2838 ft | 182 kts | 353° |
| 2026-05-05 18:48 | 51.12510 | 2.58195 | 2712 ft | 180 kts | 353° |
| 2026-05-05 18:48 | 51.13746 | 2.57881 | 2572 ft | 176 kts | 11° |
| 2026-05-05 18:48 | 51.14808 | 2.58684 | 2504 ft | 172 kts | 46° |
| 2026-05-05 18:49 | 51.15512 | 2.60228 | 2506 ft | 174 kts | 59° |
| 2026-05-05 18:49 | 51.15997 | 2.61989 | 2493 ft | 175 kts | 67° |
| 2026-05-05 18:49 | 51.16370 | 2.63796 | 2475 ft | 167 kts | 69° |
| 2026-05-05 18:49 | 51.16691 | 2.65544 | 2476 ft | 166 kts | 70° |
| 2026-05-05 18:50 | 51.16979 | 2.67308 | 2371 ft | 162 kts | 72° |
| 2026-05-05 18:50 | 51.17239 | 2.69037 | 2170 ft | 156 kts | 72° |
| 2026-05-05 18:50 | 51.17479 | 2.70664 | 1928 ft | 148 kts | 72° |
| 2026-05-05 18:50 | 51.17709 | 2.72234 | 1729 ft | 139 kts | 71° |
| 2026-05-05 18:51 | 51.17923 | 2.73687 | 1525 ft | 135 kts | 71° |
| 2026-05-05 18:51 | 51.18142 | 2.75150 | 1343 ft | 135 kts | 70° |
| 2026-05-05 18:51 | 51.18356 | 2.76591 | 1170 ft | 134 kts | 71° |
| 2026-05-05 18:51 | 51.18573 | 2.78041 | 992 ft | 134 kts | 71° |
| 2026-05-05 18:52 | 51.18793 | 2.79472 | 809 ft | 134 kts | 71° |
| 2026-05-05 18:52 | 51.18998 | 2.80918 | 616 ft | 134 kts | 72° |
| 2026-05-05 18:52 | 51.19209 | 2.82356 | 467 ft | 133 kts | 71° |
| 2026-05-05 18:52 | 51.19427 | 2.83786 | 288 ft | 133 kts | 71° |
| 2026-05-05 18:53 | 51.19646 | 2.85223 | 103 ft | 133 kts | 71° |
| 2026-05-05 18:53 | 51.19859 | 2.86604 | 16 ft | 118 kts | 75° |
| 2026-05-05 18:53 | 51.20007 | 2.87576 | 16 ft | 69 kts | 77° |
| 2026-05-05 18:53 | 51.20085 | 2.88104 | 12 ft | 30 kts | 75° |
| 2026-05-05 18:54 | 51.20119 | 2.88298 | 12 ft | 13 kts | 56° |
| 2026-05-05 18:54 | 51.20188 | 2.88311 | 12 ft | 10 kts | 345° |
| 2026-05-05 18:54 | 51.20224 | 2.88282 | 12 ft | 5 kts | 319° |
| 2026-05-05 18:54 | 51.20248 | 2.88227 | 12 ft | 7 kts | 291° |
| 2026-05-05 18:55 | 51.20253 | 2.88134 | 12 ft | 9 kts | 263° |
| 2026-05-05 18:55 | 51.20236 | 2.88014 | 13 ft | 12 kts | 257° |
| 2026-05-05 18:55 | 51.20214 | 2.87867 | 14 ft | 14 kts | 257° |
| 2026-05-05 18:55 | 51.20189 | 2.87705 | 16 ft | 15 kts | 256° |
| 2026-05-05 18:56 | 51.20187 | 2.87590 | 17 ft | 8 kts | 327° |
| 2026-05-05 18:56 | 51.20250 | 2.87572 | 17 ft | 9 kts | 349° |
| 2026-05-05 18:56 | 51.20314 | 2.87540 | 18 ft | 9 kts | 319° |
| 2026-05-05 18:56 | 51.20318 | 2.87444 | 19 ft | 9 kts | 257° |
| 2026-05-05 18:57 | 51.20302 | 2.87341 | 19 ft | 10 kts | 257° |
| 2026-05-05 18:57 | 51.20286 | 2.87228 | 20 ft | 10 kts | 257° |
| 2026-05-05 18:57 | 51.20267 | 2.87104 | 20 ft | 12 kts | 256° |
| 2026-05-05 18:57 | 51.20248 | 2.86970 | 20 ft | 11 kts | 258° |
| 2026-05-05 18:58 | 51.20235 | 2.86868 | 19 ft | 6 kts | 268° |
| 2026-05-05 18:58 | 51.20270 | 2.86825 | 20 ft | 7 kts | 344° |
| 2026-05-05 18:58 | 51.20298 | 2.86814 | 20 ft | 0 kts | 346° |
| 2026-05-05 18:58 | 51.20300 | 2.86813 | 20 ft | 0 kts | 346° |